Geneva, Georgia
Current Conditions -  °F | °C
As of 10:51 PM on Thursday 27 Nov 2014 (Local Time) from KCSG Reporting Station
Clear Clear  
Wind Chill: 33°   Ceiling: Unl
Heat Index: 37°   Visibility: 10mi
Dew Point: 29°   Wind: 5mph
Humidity: 73%   Direction: 320°NW
Pressure: 30.41"   Gusts: NA
Location:  32.58°N, 84.55°W
Report Text: KCSG 280351Z 32004KT 10SM CLR 03/M02 A3041 RMK AO2 SLP299 T00281017
Loading
Personal Weather Stations






























Interactive Weather Map New forecast layout! Learn more

10-Day Weather Forecast

Advertisements
Track Severe Weather on mobile